Airfield :
LOGIN :

Register | Disclaimer

   EN    FR    IT 

 










Legend :    VFR   Marginal VFR   IFR   Intensive IFR   Very Intensive IFR
Visi :
Ceiling :
>= 8 km
>= 3000ft
5 to 8 km
1000 to 3000 ft
1500m to 5 km
500 to 1000 ft
800 to 1500m
200 to 500 ft
< 800m
< 200 ft
Symbols :   Thunderstorms  Fog  Heavy snow  Heavy precipitations  Wind > 20 kt
SIGMETs :     Misc.  Thunderstorms  Icing  Turbulence  Mountain Waves  Volcanic Ashes






- Airport Elevation : 526 ft
- IATA code : LTN


EGGW - London Luton

CURRENT METAR :
  • 270850Z AUTO 34016KT 9999 BKN006 OVC013 03/02 Q0992

EXPIRED METARs :
  • 270820Z AUTO 35015KT 9999 -RA OVC008/// //////TCU 03/02 Q0991
  • 270750Z AUTO 35014KT 9999 BKN007/// OVC013/// //////TCU 03/02 Q0990
  • 270720Z AUTO 35015KT 9000 -RASN BKN006/// OVC020/// //////TCU 02/02 Q0989
  • 270650Z AUTO 35015KT 9999 -RA BKN006/// OVC012/// //////TCU 02/02 Q0988
  • 270620Z AUTO 35014KT 9000 -RA BKN006/// OVC023/// //////TCU 02/01 Q0987

TAF TAF EGGW
Valid from the 27 at 06:00 until the 28 at 06:00 UTC


270502Z 2706/2806 36016KT 9999 SCT012 BKN020
TEMPO 2706/2710 34020G32KT
TEMPO 2706/2721 6000 RA BKN008
PROB30
TEMPO 2706/2708 4000 RASN BKN004
BECMG 2710/2713 33024G38KT
TEMPO 2721/2806 BKN012
BECMG 2723/2802 33018G28KT
BECMG 2803/2806 32014KT
ATIS : +44 1582 395 204



MET'MAP, your aeronautical weather chart ! - Copyright ORBIFLY December 2007 - Disclaimer

ORBIFLY MET'MAP TEAM :

Programming & Development : Alexandra Zaïnal
Concept & original design : Baudouin d'Aumeries
Assistance for programming : Marc-Olivier Méhu
Technical & hardware support : Manuel Goepfert

Contact : metmap@orbifly.com




SOURCES & CREDITS :

   NOAA